PAA1171 RJAA-VHHX
Flight info
| Callsign | PAA1171 |
|---|---|
| Flight time | 4h 23m |
| Altitude | 30000 |
| Route | PIGOK Y50 IGMON A1 MAGOG |
| Aircraft | MD11/H-SDE1E2E3FGHIJ2J3J4J5M1RWXY/LB1D1 |
Departure
| Time | 2026-04-26 20:24 |
|---|---|
| Airport | Narita International Airport (RJAA) |
Arrival
| Time | 2026-04-27 00:47 |
|---|---|
| Airport | Hong Kong International Airport Kai Tak (VHHX) |
| Time | Latitude | Longitude | Altitude | Speed | Heading |
|---|---|---|---|---|---|
| 2026-04-26 19:53 | 35.77229 | 140.37766 | 149 ft | 0 kts | 58° |
| 2026-04-26 20:11 | 35.77223 | 140.37753 | 149 ft | 3 kts | 58° |
| 2026-04-26 20:11 | 35.77215 | 140.37739 | 149 ft | 3 kts | 58° |
| 2026-04-26 20:12 | 35.77195 | 140.37699 | 148 ft | 2 kts | 58° |
| 2026-04-26 20:12 | 35.77187 | 140.37681 | 148 ft | 3 kts | 75° |
| 2026-04-26 20:12 | 35.77184 | 140.37664 | 148 ft | 3 kts | 111° |
| 2026-04-26 20:12 | 35.77190 | 140.37649 | 147 ft | 3 kts | 146° |
| 2026-04-26 20:13 | 35.77207 | 140.37636 | 147 ft | 2 kts | 149° |
| 2026-04-26 20:13 | 35.77211 | 140.37633 | 147 ft | 0 kts | 148° |
| 2026-04-26 20:15 | 35.77205 | 140.37638 | 147 ft | 6 kts | 148° |
| 2026-04-26 20:15 | 35.77133 | 140.37693 | 147 ft | 15 kts | 149° |
| 2026-04-26 20:16 | 35.77059 | 140.37748 | 148 ft | 9 kts | 149° |
| 2026-04-26 20:16 | 35.77017 | 140.37780 | 149 ft | 8 kts | 149° |
| 2026-04-26 20:16 | 35.76965 | 140.37817 | 149 ft | 7 kts | 149° |
| 2026-04-26 20:16 | 35.76923 | 140.37847 | 149 ft | 9 kts | 150° |
| 2026-04-26 20:17 | 35.76847 | 140.37900 | 148 ft | 16 kts | 150° |
| 2026-04-26 20:17 | 35.76744 | 140.37956 | 148 ft | 12 kts | 174° |
| 2026-04-26 20:17 | 35.76672 | 140.37932 | 148 ft | 11 kts | 212° |
| 2026-04-26 20:17 | 35.76596 | 140.37828 | 147 ft | 19 kts | 235° |
| 2026-04-26 20:18 | 35.76498 | 140.37770 | 149 ft | 14 kts | 169° |
| 2026-04-26 20:18 | 35.76400 | 140.37838 | 147 ft | 24 kts | 148° |
| 2026-04-26 20:18 | 35.76234 | 140.37963 | 149 ft | 26 kts | 149° |
| 2026-04-26 20:18 | 35.76094 | 140.38065 | 151 ft | 20 kts | 149° |
| 2026-04-26 20:19 | 35.75994 | 140.38137 | 153 ft | 14 kts | 150° |
| 2026-04-26 20:19 | 35.75918 | 140.38191 | 153 ft | 10 kts | 150° |
| 2026-04-26 20:19 | 35.75878 | 140.38218 | 153 ft | 3 kts | 150° |
| 2026-04-26 20:19 | 35.75847 | 140.38240 | 154 ft | 11 kts | 150° |
| 2026-04-26 20:20 | 35.75709 | 140.38336 | 155 ft | 35 kts | 150° |
| 2026-04-26 20:20 | 35.75464 | 140.38517 | 154 ft | 41 kts | 148° |
| 2026-04-26 20:20 | 35.75237 | 140.38689 | 155 ft | 36 kts | 149° |
| 2026-04-26 20:20 | 35.75034 | 140.38828 | 158 ft | 31 kts | 152° |
| 2026-04-26 20:21 | 35.74858 | 140.38952 | 157 ft | 28 kts | 150° |
| 2026-04-26 20:21 | 35.74702 | 140.39064 | 156 ft | 25 kts | 149° |
| 2026-04-26 20:21 | 35.74561 | 140.39172 | 154 ft | 23 kts | 147° |
| 2026-04-26 20:21 | 35.74444 | 140.39223 | 154 ft | 11 kts | 196° |
| 2026-04-26 20:22 | 35.74388 | 140.39152 | 152 ft | 17 kts | 235° |
| 2026-04-26 20:22 | 35.74368 | 140.39063 | 151 ft | 9 kts | 297° |
| 2026-04-26 20:22 | 35.74399 | 140.39033 | 151 ft | 0 kts | 329° |
| 2026-04-26 20:23 | 35.74564 | 140.38913 | 153 ft | 69 kts | 329° |
| 2026-04-26 20:23 | 35.75221 | 140.38442 | 151 ft | 148 kts | 329° |
| 2026-04-26 20:23 | 35.76268 | 140.37683 | 384 ft | 187 kts | 330° |
| 2026-04-26 20:24 | 35.77374 | 140.36843 | 1276 ft | 190 kts | 333° |
| 2026-04-26 20:24 | 35.78550 | 140.35992 | 2056 ft | 200 kts | 333° |
| 2026-04-26 20:24 | 35.79777 | 140.35109 | 2701 ft | 206 kts | 332° |
| 2026-04-26 20:24 | 35.81027 | 140.34206 | 3376 ft | 213 kts | 331° |
| 2026-04-26 20:25 | 35.82400 | 140.33215 | 3557 ft | 242 kts | 331° |
| 2026-04-26 20:25 | 35.83391 | 140.32498 | 3644 ft | 257 kts | 331° |
| 2026-04-26 20:25 | 35.85531 | 140.30945 | 3840 ft | 276 kts | 331° |
| 2026-04-26 20:25 | 35.87213 | 140.29721 | 4165 ft | 283 kts | 331° |
| 2026-04-26 20:26 | 35.88977 | 140.28438 | 4590 ft | 302 kts | 330° |
| 2026-04-26 20:26 | 35.90777 | 140.27126 | 5419 ft | 306 kts | 330° |
| 2026-04-26 20:26 | 35.92640 | 140.25767 | 5953 ft | 312 kts | 329° |
| 2026-04-26 20:26 | 35.94516 | 140.24397 | 6336 ft | 314 kts | 329° |
| 2026-04-26 20:27 | 35.96449 | 140.23130 | 6694 ft | 316 kts | 340° |
| 2026-04-26 20:27 | 35.98593 | 140.22655 | 6960 ft | 314 kts | 6° |
| 2026-04-26 20:27 | 36.00632 | 140.23420 | 7013 ft | 305 kts | 35° |
| 2026-04-26 20:27 | 36.02277 | 140.25040 | 7033 ft | 302 kts | 48° |
| 2026-04-26 20:28 | 36.03595 | 140.27032 | 7018 ft | 297 kts | 64° |
| 2026-04-26 20:28 | 36.04234 | 140.29405 | 7649 ft | 289 kts | 85° |
| 2026-04-26 20:28 | 36.04383 | 140.31903 | 8334 ft | 292 kts | 93° |
| 2026-04-26 20:28 | 36.04395 | 140.34439 | 9035 ft | 297 kts | 94° |
| 2026-04-26 20:29 | 36.04384 | 140.37003 | 9756 ft | 301 kts | 95° |
| 2026-04-26 20:29 | 36.04376 | 140.39593 | 10217 ft | 314 kts | 94° |
| 2026-04-26 20:29 | 36.04258 | 140.42371 | 10345 ft | 333 kts | 104° |
| 2026-04-26 20:29 | 36.03520 | 140.45130 | 10553 ft | 344 kts | 119° |
| 2026-04-26 20:30 | 36.02360 | 140.47748 | 11148 ft | 349 kts | 124° |
| 2026-04-26 20:30 | 36.01087 | 140.50327 | 11766 ft | 353 kts | 125° |
| 2026-04-26 20:30 | 35.99732 | 140.52872 | 12345 ft | 357 kts | 130° |
| 2026-04-26 20:30 | 35.98139 | 140.55242 | 12946 ft | 360 kts | 135° |
| 2026-04-26 20:31 | 35.96431 | 140.57527 | 13521 ft | 365 kts | 136° |
| 2026-04-26 20:31 | 35.94673 | 140.59810 | 14052 ft | 369 kts | 136° |
| 2026-04-26 20:31 | 35.92889 | 140.62112 | 14576 ft | 372 kts | 137° |
| 2026-04-26 20:31 | 35.90970 | 140.64245 | 15074 ft | 372 kts | 146° |
| 2026-04-26 20:32 | 35.88738 | 140.65840 | 15587 ft | 370 kts | 161° |
| 2026-04-26 20:32 | 35.86256 | 140.66621 | 16066 ft | 370 kts | 176° |
| 2026-04-26 20:32 | 35.83683 | 140.66550 | 16548 ft | 371 kts | 188° |
| 2026-04-26 20:32 | 35.81130 | 140.66028 | 17045 ft | 373 kts | 192° |
| 2026-04-26 20:33 | 35.78681 | 140.65405 | 17519 ft | 375 kts | 193° |
| 2026-04-26 20:33 | 35.76117 | 140.64744 | 18013 ft | 378 kts | 192° |
| 2026-04-26 20:33 | 35.73534 | 140.64106 | 18454 ft | 380 kts | 192° |
| 2026-04-26 20:33 | 35.70926 | 140.63491 | 18863 ft | 382 kts | 192° |
| 2026-04-26 20:34 | 35.68308 | 140.62897 | 19275 ft | 384 kts | 191° |
| 2026-04-26 20:34 | 35.65670 | 140.62314 | 19656 ft | 386 kts | 191° |
| 2026-04-26 20:34 | 35.63054 | 140.61744 | 20019 ft | 387 kts | 191° |
| 2026-04-26 20:34 | 35.60362 | 140.61151 | 20396 ft | 389 kts | 192° |
| 2026-04-26 20:35 | 35.57768 | 140.60382 | 20776 ft | 389 kts | 198° |
| 2026-04-26 20:35 | 35.55268 | 140.59144 | 21146 ft | 390 kts | 208° |
| 2026-04-26 20:35 | 35.52988 | 140.57340 | 21554 ft | 391 kts | 218° |
| 2026-04-26 20:35 | 35.51024 | 140.55006 | 21977 ft | 394 kts | 229° |
| 2026-04-26 20:36 | 35.49453 | 140.52243 | 22400 ft | 399 kts | 238° |
| 2026-04-26 20:36 | 35.48273 | 140.49147 | 22819 ft | 403 kts | 245° |
| 2026-04-26 20:36 | 35.47301 | 140.45910 | 23263 ft | 406 kts | 247° |
| 2026-04-26 20:36 | 35.46387 | 140.42627 | 23669 ft | 407 kts | 248° |
| 2026-04-26 20:37 | 35.45468 | 140.39333 | 24073 ft | 408 kts | 247° |
| 2026-04-26 20:37 | 35.44524 | 140.36040 | 24500 ft | 409 kts | 246° |
| 2026-04-26 20:37 | 35.43560 | 140.32756 | 24915 ft | 410 kts | 246° |
| 2026-04-26 20:37 | 35.42581 | 140.29476 | 25362 ft | 411 kts | 246° |
| 2026-04-26 20:38 | 35.41603 | 140.26232 | 25789 ft | 412 kts | 246° |
| 2026-04-26 20:38 | 35.40591 | 140.22893 | 26211 ft | 413 kts | 246° |
| 2026-04-26 20:38 | 35.40098 | 140.21268 | 26413 ft | 414 kts | 246° |
| 2026-04-26 20:38 | 35.39133 | 140.18094 | 26818 ft | 415 kts | 245° |
| 2026-04-26 20:39 | 35.38123 | 140.14777 | 27234 ft | 417 kts | 245° |
| 2026-04-26 20:39 | 35.37435 | 140.12521 | 27505 ft | 418 kts | 245° |
| 2026-04-26 20:39 | 35.36083 | 140.08090 | 28005 ft | 420 kts | 245° |
| 2026-04-26 20:39 | 35.35058 | 140.04733 | 28416 ft | 422 kts | 245° |
| 2026-04-26 20:40 | 35.34028 | 140.01363 | 28794 ft | 423 kts | 245° |
| 2026-04-26 20:40 | 35.32993 | 139.97981 | 29186 ft | 425 kts | 245° |
| 2026-04-26 20:40 | 35.31967 | 139.94633 | 29565 ft | 426 kts | 245° |
| 2026-04-26 20:40 | 35.30910 | 139.91236 | 29802 ft | 429 kts | 245° |
| 2026-04-26 20:41 | 35.29836 | 139.87821 | 29856 ft | 432 kts | 245° |
| 2026-04-26 20:41 | 35.27650 | 139.80892 | 29861 ft | 440 kts | 245° |
| 2026-04-26 20:42 | 35.25438 | 139.73871 | 29857 ft | 445 kts | 244° |
| 2026-04-26 20:42 | 35.23230 | 139.66858 | 29862 ft | 444 kts | 244° |
| 2026-04-26 20:43 | 35.21009 | 139.59820 | 29865 ft | 442 kts | 244° |
| 2026-04-26 20:43 | 35.18815 | 139.52822 | 29867 ft | 441 kts | 245° |
| 2026-04-26 20:44 | 35.17508 | 139.45417 | 29871 ft | 452 kts | 258° |
| 2026-04-26 20:44 | 35.17195 | 139.37700 | 29875 ft | 456 kts | 261° |
| 2026-04-26 20:45 | 35.16972 | 139.29943 | 29878 ft | 456 kts | 260° |
| 2026-04-26 20:45 | 35.16661 | 139.22231 | 29875 ft | 457 kts | 259° |
| 2026-04-26 20:46 | 35.16300 | 139.14466 | 29878 ft | 458 kts | 259° |
| 2026-04-26 20:46 | 35.15924 | 139.06667 | 29897 ft | 459 kts | 259° |
| 2026-04-26 20:47 | 35.15542 | 138.98843 | 29868 ft | 463 kts | 259° |
| 2026-04-26 20:47 | 35.15142 | 138.90961 | 29868 ft | 467 kts | 259° |
| 2026-04-26 20:48 | 35.14734 | 138.83004 | 29859 ft | 471 kts | 260° |
| 2026-04-26 20:48 | 35.14327 | 138.75002 | 29856 ft | 473 kts | 260° |
| 2026-04-26 20:49 | 35.13919 | 138.67019 | 29852 ft | 474 kts | 260° |
| 2026-04-26 20:49 | 35.13502 | 138.58972 | 29849 ft | 475 kts | 259° |
| 2026-04-26 20:50 | 35.13079 | 138.50916 | 29850 ft | 476 kts | 259° |
| 2026-04-26 20:50 | 35.12649 | 138.42838 | 29847 ft | 476 kts | 259° |
| 2026-04-26 20:51 | 35.12205 | 138.34760 | 29846 ft | 476 kts | 259° |
| 2026-04-26 20:51 | 35.11749 | 138.26695 | 29838 ft | 477 kts | 259° |
| 2026-04-26 20:52 | 35.11295 | 138.18581 | 29840 ft | 479 kts | 259° |
| 2026-04-26 20:52 | 35.10837 | 138.10436 | 29835 ft | 481 kts | 259° |
| 2026-04-26 20:53 | 35.10370 | 138.02274 | 29832 ft | 482 kts | 260° |
| 2026-04-26 20:53 | 35.09902 | 137.94091 | 29829 ft | 483 kts | 260° |
| 2026-04-26 20:54 | 35.09429 | 137.85926 | 29818 ft | 486 kts | 260° |
| 2026-04-26 20:54 | 35.08950 | 137.77699 | 29819 ft | 485 kts | 259° |
| 2026-04-26 20:55 | 35.08463 | 137.69487 | 29808 ft | 485 kts | 259° |
| 2026-04-26 20:55 | 35.07243 | 137.61512 | 29828 ft | 474 kts | 247° |
| 2026-04-26 20:56 | 35.05055 | 137.53963 | 29825 ft | 471 kts | 244° |
| 2026-04-26 20:56 | 35.02768 | 137.46475 | 29799 ft | 471 kts | 244° |
| 2026-04-26 20:57 | 35.00930 | 137.40206 | 29799 ft | 472 kts | 245° |
| 2026-04-26 20:57 | 34.98767 | 137.32633 | 29794 ft | 474 kts | 245° |
| 2026-04-26 20:58 | 34.96606 | 137.25034 | 29796 ft | 476 kts | 245° |
| 2026-04-26 20:58 | 34.94430 | 137.17405 | 29790 ft | 478 kts | 245° |
| 2026-04-26 20:59 | 34.92236 | 137.09742 | 29796 ft | 480 kts | 244° |
| 2026-04-26 20:59 | 34.90026 | 137.02050 | 29800 ft | 482 kts | 244° |
| 2026-04-26 21:00 | 34.87816 | 136.94378 | 29803 ft | 483 kts | 244° |
| 2026-04-26 21:00 | 34.85383 | 136.86788 | 29803 ft | 479 kts | 239° |
| 2026-04-26 21:01 | 34.82576 | 136.79450 | 29805 ft | 477 kts | 237° |
| 2026-04-26 21:01 | 34.79721 | 136.72151 | 29807 ft | 478 kts | 237° |
| 2026-04-26 21:02 | 34.76884 | 136.64820 | 29801 ft | 478 kts | 238° |
| 2026-04-26 21:02 | 34.74060 | 136.57484 | 29795 ft | 478 kts | 238° |
| 2026-04-26 21:03 | 34.71261 | 136.50217 | 29796 ft | 477 kts | 239° |
| 2026-04-26 21:03 | 34.68443 | 136.42923 | 29797 ft | 477 kts | 239° |
| 2026-04-26 21:04 | 34.65622 | 136.35636 | 29801 ft | 476 kts | 240° |
| 2026-04-26 21:04 | 34.62800 | 136.28365 | 29807 ft | 475 kts | 240° |
| 2026-04-26 21:05 | 34.59979 | 136.21112 | 29806 ft | 474 kts | 240° |
| 2026-04-26 21:05 | 34.57052 | 136.13955 | 29803 ft | 472 kts | 239° |
| 2026-04-26 21:06 | 34.54028 | 136.06940 | 29806 ft | 471 kts | 239° |
| 2026-04-26 21:06 | 34.50988 | 135.99905 | 29806 ft | 472 kts | 239° |
| 2026-04-26 21:07 | 34.47943 | 135.92833 | 29803 ft | 472 kts | 240° |
| 2026-04-26 21:07 | 34.44900 | 135.85763 | 29800 ft | 473 kts | 240° |
| 2026-04-26 21:08 | 34.41853 | 135.78694 | 29801 ft | 473 kts | 241° |
| 2026-04-26 21:08 | 34.38800 | 135.71629 | 29802 ft | 473 kts | 241° |
| 2026-04-26 21:09 | 34.35743 | 135.64570 | 29805 ft | 473 kts | 242° |
| 2026-04-26 21:09 | 34.32684 | 135.57520 | 29812 ft | 473 kts | 242° |
| 2026-04-26 21:10 | 34.29649 | 135.50540 | 29817 ft | 472 kts | 242° |
| 2026-04-26 21:10 | 34.26588 | 135.43515 | 29819 ft | 471 kts | 243° |
| 2026-04-26 21:11 | 34.23533 | 135.36517 | 29819 ft | 470 kts | 243° |
| 2026-04-26 21:11 | 34.20477 | 135.29537 | 29825 ft | 469 kts | 243° |
| 2026-04-26 21:12 | 34.17405 | 135.22591 | 29822 ft | 469 kts | 243° |
| 2026-04-26 21:12 | 34.14335 | 135.15640 | 29830 ft | 468 kts | 243° |
| 2026-04-26 21:13 | 34.11281 | 135.08709 | 29834 ft | 467 kts | 244° |
| 2026-04-26 21:13 | 34.08231 | 135.01792 | 29837 ft | 467 kts | 244° |
| 2026-04-26 21:14 | 34.05181 | 134.94889 | 29850 ft | 466 kts | 244° |
| 2026-04-26 21:14 | 34.02146 | 134.88037 | 29849 ft | 465 kts | 244° |
| 2026-04-26 21:15 | 33.99095 | 134.81149 | 29851 ft | 465 kts | 244° |
| 2026-04-26 21:15 | 33.96047 | 134.74263 | 29853 ft | 465 kts | 244° |
| 2026-04-26 21:16 | 33.93007 | 134.67404 | 29852 ft | 465 kts | 244° |
| 2026-04-26 21:16 | 33.89959 | 134.60542 | 29848 ft | 464 kts | 244° |
| 2026-04-26 21:17 | 33.86907 | 134.53684 | 29848 ft | 464 kts | 243° |
| 2026-04-26 21:17 | 33.83873 | 134.46879 | 29851 ft | 464 kts | 243° |
| 2026-04-26 21:18 | 33.80812 | 134.40027 | 29854 ft | 464 kts | 243° |
| 2026-04-26 21:18 | 33.77750 | 134.33187 | 29849 ft | 464 kts | 243° |
| 2026-04-26 21:19 | 33.74681 | 134.26344 | 29853 ft | 465 kts | 243° |
| 2026-04-26 21:19 | 33.71607 | 134.19504 | 29860 ft | 465 kts | 243° |
| 2026-04-26 21:20 | 33.68545 | 134.12705 | 29857 ft | 465 kts | 243° |
| 2026-04-26 21:20 | 33.65463 | 134.05874 | 29853 ft | 465 kts | 243° |
| 2026-04-26 21:21 | 33.62358 | 133.99051 | 29840 ft | 465 kts | 242° |
| 2026-04-26 21:21 | 33.59245 | 133.92223 | 29843 ft | 466 kts | 242° |
| 2026-04-26 21:22 | 33.56141 | 133.85397 | 29836 ft | 466 kts | 242° |
| 2026-04-26 21:22 | 33.53063 | 133.78627 | 29836 ft | 465 kts | 242° |
| 2026-04-26 21:23 | 33.48407 | 133.68408 | 29831 ft | 465 kts | 242° |
| 2026-04-26 21:23 | 33.45293 | 133.61593 | 29833 ft | 465 kts | 242° |
| 2026-04-26 21:24 | 33.42185 | 133.54803 | 29833 ft | 465 kts | 242° |
| 2026-04-26 21:24 | 33.39093 | 133.48060 | 29841 ft | 465 kts | 242° |
| 2026-04-26 21:25 | 33.35979 | 133.41283 | 29848 ft | 464 kts | 242° |
| 2026-04-26 21:25 | 33.32860 | 133.34510 | 29852 ft | 464 kts | 242° |
| 2026-04-26 21:26 | 33.29745 | 133.27756 | 29857 ft | 464 kts | 242° |
| 2026-04-26 21:26 | 33.26445 | 133.21129 | 29865 ft | 464 kts | 238° |
| 2026-04-26 21:27 | 33.22780 | 133.14820 | 29863 ft | 464 kts | 236° |
| 2026-04-26 21:27 | 33.19048 | 133.08534 | 29867 ft | 464 kts | 236° |
| 2026-04-26 21:28 | 33.15343 | 133.02235 | 29873 ft | 463 kts | 237° |
| 2026-04-26 21:28 | 33.11653 | 132.95934 | 29877 ft | 463 kts | 237° |
| 2026-04-26 21:29 | 33.07966 | 132.89639 | 29876 ft | 463 kts | 237° |
| 2026-04-26 21:29 | 33.04268 | 132.83337 | 29880 ft | 463 kts | 237° |
| 2026-04-26 21:30 | 33.00579 | 132.77099 | 29887 ft | 462 kts | 237° |
| 2026-04-26 21:30 | 32.96871 | 132.70847 | 29887 ft | 462 kts | 237° |
| 2026-04-26 21:31 | 32.93159 | 132.64589 | 29892 ft | 462 kts | 237° |
| 2026-04-26 21:31 | 32.89441 | 132.58325 | 29895 ft | 462 kts | 238° |
| 2026-04-26 21:32 | 32.85727 | 132.52078 | 29899 ft | 463 kts | 238° |
| 2026-04-26 21:32 | 32.82003 | 132.45824 | 29900 ft | 463 kts | 238° |
| 2026-04-26 21:33 | 32.78302 | 132.39620 | 29900 ft | 463 kts | 238° |
| 2026-04-26 21:33 | 32.74567 | 132.33370 | 29905 ft | 464 kts | 238° |
| 2026-04-26 21:34 | 32.70826 | 132.27119 | 29901 ft | 464 kts | 238° |
| 2026-04-26 21:34 | 32.67078 | 132.20867 | 29907 ft | 465 kts | 239° |
| 2026-04-26 21:35 | 32.63366 | 132.14632 | 29916 ft | 465 kts | 239° |
| 2026-04-26 21:35 | 32.59662 | 132.08335 | 29906 ft | 465 kts | 239° |
| 2026-04-26 21:36 | 32.56582 | 132.03094 | 29914 ft | 465 kts | 240° |
| 2026-04-26 21:36 | 32.52251 | 131.95736 | 29911 ft | 466 kts | 240° |
| 2026-04-26 21:37 | 32.48540 | 131.89441 | 29914 ft | 466 kts | 240° |
| 2026-04-26 21:37 | 32.44820 | 131.83141 | 29921 ft | 466 kts | 240° |
| 2026-04-26 21:38 | 32.41099 | 131.76852 | 29912 ft | 466 kts | 240° |
| 2026-04-26 21:38 | 32.37403 | 131.70615 | 29913 ft | 466 kts | 240° |
| 2026-04-26 21:39 | 32.33681 | 131.64344 | 29919 ft | 466 kts | 241° |
| 2026-04-26 21:39 | 32.29956 | 131.58078 | 29914 ft | 465 kts | 241° |
| 2026-04-26 21:40 | 32.26234 | 131.51828 | 29919 ft | 465 kts | 241° |
| 2026-04-26 21:40 | 32.22506 | 131.45578 | 29927 ft | 465 kts | 241° |
| 2026-04-26 21:41 | 32.18798 | 131.39370 | 29919 ft | 464 kts | 241° |
| 2026-04-26 21:41 | 32.15066 | 131.33135 | 29927 ft | 464 kts | 241° |
| 2026-04-26 21:42 | 32.11330 | 131.26910 | 29923 ft | 464 kts | 240° |
| 2026-04-26 21:42 | 32.07582 | 131.20709 | 29925 ft | 464 kts | 240° |
| 2026-04-26 21:43 | 32.04469 | 131.15553 | 29922 ft | 464 kts | 241° |
| 2026-04-26 21:43 | 32.00123 | 131.08344 | 29950 ft | 464 kts | 241° |
| 2026-04-26 21:44 | 31.96989 | 131.03148 | 29948 ft | 464 kts | 241° |
| 2026-04-26 21:44 | 31.93243 | 130.96946 | 29941 ft | 465 kts | 241° |
| 2026-04-26 21:45 | 31.89492 | 130.90747 | 29934 ft | 465 kts | 241° |
| 2026-04-26 21:45 | 31.85750 | 130.84573 | 29936 ft | 466 kts | 241° |
| 2026-04-26 21:46 | 31.81989 | 130.78380 | 29937 ft | 465 kts | 241° |
| 2026-04-26 21:46 | 31.78225 | 130.72191 | 29938 ft | 465 kts | 241° |
| 2026-04-26 21:47 | 31.74446 | 130.65986 | 29937 ft | 466 kts | 241° |
| 2026-04-26 21:47 | 31.70671 | 130.59803 | 29938 ft | 466 kts | 240° |
| 2026-04-26 21:48 | 31.66787 | 130.53746 | 29942 ft | 468 kts | 239° |
| 2026-04-26 21:48 | 31.62792 | 130.47705 | 29945 ft | 468 kts | 239° |
| 2026-04-26 21:49 | 31.58800 | 130.41668 | 29944 ft | 468 kts | 239° |
| 2026-04-26 21:49 | 31.54813 | 130.35621 | 29948 ft | 468 kts | 239° |
| 2026-04-26 21:50 | 31.50821 | 130.29571 | 29953 ft | 468 kts | 239° |
| 2026-04-26 21:50 | 31.46836 | 130.23538 | 29950 ft | 468 kts | 239° |
| 2026-04-26 21:51 | 31.42844 | 130.17505 | 29956 ft | 468 kts | 239° |
| 2026-04-26 21:51 | 31.38877 | 130.11519 | 29953 ft | 468 kts | 239° |
| 2026-04-26 21:52 | 31.34879 | 130.05497 | 29957 ft | 468 kts | 238° |
| 2026-04-26 21:52 | 31.30882 | 129.99485 | 29962 ft | 468 kts | 238° |
| 2026-04-26 21:53 | 31.26874 | 129.93485 | 29971 ft | 468 kts | 238° |
| 2026-04-26 21:53 | 31.22866 | 129.87500 | 29968 ft | 468 kts | 238° |
| 2026-04-26 21:54 | 31.18862 | 129.81513 | 29961 ft | 467 kts | 238° |
| 2026-04-26 21:54 | 31.14877 | 129.75557 | 29966 ft | 467 kts | 238° |
| 2026-04-26 21:55 | 31.10867 | 129.69570 | 29966 ft | 467 kts | 238° |
| 2026-04-26 21:55 | 31.06862 | 129.63602 | 29982 ft | 467 kts | 238° |
| 2026-04-26 21:56 | 31.02859 | 129.57645 | 29972 ft | 466 kts | 238° |
| 2026-04-26 21:56 | 30.98856 | 129.51699 | 29975 ft | 466 kts | 238° |
| 2026-04-26 21:57 | 30.94854 | 129.45761 | 29977 ft | 465 kts | 238° |
| 2026-04-26 21:57 | 30.90873 | 129.39865 | 29977 ft | 465 kts | 238° |
| 2026-04-26 21:58 | 30.86877 | 129.33956 | 29980 ft | 464 kts | 238° |
| 2026-04-26 21:58 | 30.82877 | 129.28048 | 29983 ft | 464 kts | 238° |
| 2026-04-26 21:59 | 30.78885 | 129.22163 | 29982 ft | 463 kts | 238° |
| 2026-04-26 21:59 | 30.74933 | 129.16245 | 29981 ft | 462 kts | 239° |
| 2026-04-26 22:00 | 30.71038 | 129.10296 | 29981 ft | 462 kts | 239° |
| 2026-04-26 22:00 | 30.67154 | 129.04347 | 29988 ft | 462 kts | 239° |
| 2026-04-26 22:01 | 30.63294 | 128.98445 | 29987 ft | 462 kts | 239° |
| 2026-04-26 22:01 | 30.59396 | 128.92499 | 29989 ft | 463 kts | 239° |
| 2026-04-26 22:02 | 30.55483 | 128.86540 | 29992 ft | 463 kts | 239° |
| 2026-04-26 22:02 | 30.51571 | 128.80593 | 29992 ft | 464 kts | 239° |
| 2026-04-26 22:03 | 30.47646 | 128.74636 | 29993 ft | 465 kts | 239° |
| 2026-04-26 22:03 | 30.43715 | 128.68672 | 29991 ft | 465 kts | 239° |
| 2026-04-26 22:04 | 30.39807 | 128.62758 | 30000 ft | 466 kts | 239° |
| 2026-04-26 22:04 | 30.35862 | 128.56799 | 29994 ft | 466 kts | 238° |
| 2026-04-26 22:05 | 30.31911 | 128.50838 | 29991 ft | 467 kts | 238° |
| 2026-04-26 22:05 | 30.27959 | 128.44883 | 30010 ft | 466 kts | 238° |
| 2026-04-26 22:06 | 30.23986 | 128.38938 | 29999 ft | 466 kts | 238° |
| 2026-04-26 22:06 | 30.20024 | 128.33012 | 30001 ft | 466 kts | 238° |
| 2026-04-26 22:07 | 30.16064 | 128.27077 | 30006 ft | 466 kts | 238° |
| 2026-04-26 22:07 | 30.12131 | 128.21186 | 30008 ft | 465 kts | 238° |
| 2026-04-26 22:08 | 30.08172 | 128.15265 | 30011 ft | 465 kts | 238° |
| 2026-04-26 22:08 | 30.04209 | 128.09346 | 30017 ft | 464 kts | 238° |
| 2026-04-26 22:09 | 30.00256 | 128.03450 | 30004 ft | 465 kts | 238° |
| 2026-04-26 22:09 | 29.96327 | 127.97600 | 30022 ft | 464 kts | 238° |
| 2026-04-26 22:10 | 29.92325 | 127.91758 | 30020 ft | 465 kts | 236° |
| 2026-04-26 22:10 | 29.88136 | 127.86053 | 30019 ft | 466 kts | 235° |
| 2026-04-26 22:11 | 29.83914 | 127.80387 | 30018 ft | 466 kts | 235° |
| 2026-04-26 22:11 | 29.79706 | 127.74721 | 30019 ft | 465 kts | 235° |
| 2026-04-26 22:12 | 29.75506 | 127.69057 | 30023 ft | 465 kts | 235° |
| 2026-04-26 22:12 | 29.71332 | 127.63429 | 30026 ft | 464 kts | 234° |
| 2026-04-26 22:13 | 29.67112 | 127.57749 | 30026 ft | 464 kts | 234° |
| 2026-04-26 22:13 | 29.62945 | 127.52149 | 30025 ft | 463 kts | 234° |
| 2026-04-26 22:14 | 29.58762 | 127.46508 | 30030 ft | 463 kts | 235° |
| 2026-04-26 22:14 | 29.54724 | 127.40766 | 30030 ft | 461 kts | 236° |
| 2026-04-26 22:15 | 29.50757 | 127.34998 | 30029 ft | 461 kts | 236° |
| 2026-04-26 22:15 | 29.46786 | 127.29231 | 30027 ft | 460 kts | 236° |
| 2026-04-26 22:16 | 29.42834 | 127.23516 | 30037 ft | 460 kts | 236° |
| 2026-04-26 22:16 | 29.38862 | 127.17785 | 30038 ft | 459 kts | 236° |
| 2026-04-26 22:17 | 29.34892 | 127.12067 | 30037 ft | 458 kts | 236° |
| 2026-04-26 22:17 | 29.30920 | 127.06353 | 30039 ft | 457 kts | 236° |
| 2026-04-26 22:18 | 29.26955 | 127.00656 | 30040 ft | 457 kts | 236° |
| 2026-04-26 22:18 | 29.22988 | 126.94966 | 30041 ft | 456 kts | 235° |
| 2026-04-26 22:19 | 29.19021 | 126.89281 | 30040 ft | 456 kts | 235° |
| 2026-04-26 22:19 | 29.15061 | 126.83616 | 30043 ft | 455 kts | 235° |
| 2026-04-26 22:20 | 29.11765 | 126.78907 | 30041 ft | 455 kts | 235° |
| 2026-04-26 22:20 | 29.07165 | 126.72345 | 30045 ft | 455 kts | 235° |
| 2026-04-26 22:21 | 29.03193 | 126.66717 | 30044 ft | 455 kts | 234° |
| 2026-04-26 22:21 | 28.99227 | 126.61093 | 30049 ft | 454 kts | 234° |
| 2026-04-26 22:22 | 28.95230 | 126.55517 | 30048 ft | 454 kts | 233° |
| 2026-04-26 22:22 | 28.91180 | 126.50045 | 30052 ft | 453 kts | 233° |
| 2026-04-26 22:23 | 28.87102 | 126.44562 | 30050 ft | 452 kts | 233° |
| 2026-04-26 22:23 | 28.83044 | 126.39100 | 30051 ft | 451 kts | 233° |
| 2026-04-26 22:24 | 28.78988 | 126.33641 | 30049 ft | 450 kts | 233° |
| 2026-04-26 22:24 | 28.74946 | 126.28207 | 30052 ft | 449 kts | 233° |
| 2026-04-26 22:25 | 28.70903 | 126.22778 | 30052 ft | 451 kts | 233° |
| 2026-04-26 22:25 | 28.66828 | 126.17314 | 30047 ft | 452 kts | 232° |
| 2026-04-26 22:26 | 28.62771 | 126.11828 | 30045 ft | 452 kts | 233° |
| 2026-04-26 22:26 | 28.58846 | 126.06325 | 30049 ft | 450 kts | 234° |
| 2026-04-26 22:27 | 28.54921 | 126.00771 | 30050 ft | 449 kts | 234° |
| 2026-04-26 22:27 | 28.51005 | 125.95240 | 30050 ft | 448 kts | 233° |
| 2026-04-26 22:28 | 28.47093 | 125.89731 | 30051 ft | 447 kts | 233° |
| 2026-04-26 22:28 | 28.43188 | 125.84241 | 30050 ft | 446 kts | 233° |
| 2026-04-26 22:29 | 28.39293 | 125.78772 | 30052 ft | 445 kts | 233° |
| 2026-04-26 22:29 | 28.35401 | 125.73314 | 30054 ft | 444 kts | 233° |
| 2026-04-26 22:30 | 28.32170 | 125.68789 | 30051 ft | 443 kts | 233° |
| 2026-04-26 22:30 | 28.28279 | 125.63347 | 30053 ft | 442 kts | 233° |
| 2026-04-26 22:31 | 28.24397 | 125.57922 | 30052 ft | 442 kts | 233° |
| 2026-04-26 22:31 | 28.20525 | 125.52521 | 30051 ft | 441 kts | 233° |
| 2026-04-26 22:32 | 28.16653 | 125.47125 | 30051 ft | 441 kts | 233° |
| 2026-04-26 22:32 | 28.12777 | 125.41731 | 30051 ft | 440 kts | 233° |
| 2026-04-26 22:33 | 28.06979 | 125.33710 | 30060 ft | 441 kts | 232° |
| 2026-04-26 22:34 | 28.03101 | 125.28344 | 30055 ft | 440 kts | 232° |
| 2026-04-26 22:34 | 27.99217 | 125.22965 | 30060 ft | 440 kts | 232° |
| 2026-04-26 22:35 | 27.95342 | 125.17602 | 30055 ft | 440 kts | 232° |
| 2026-04-26 22:35 | 27.91458 | 125.12234 | 30059 ft | 440 kts | 232° |
| 2026-04-26 22:36 | 27.87586 | 125.06889 | 30053 ft | 440 kts | 232° |
| 2026-04-26 22:36 | 27.83709 | 125.01544 | 30055 ft | 440 kts | 232° |
| 2026-04-26 22:37 | 27.79832 | 124.96207 | 30054 ft | 439 kts | 232° |
| 2026-04-26 22:37 | 27.75956 | 124.90876 | 30052 ft | 439 kts | 232° |
| 2026-04-26 22:38 | 27.72105 | 124.85588 | 30052 ft | 438 kts | 232° |
| 2026-04-26 22:38 | 27.68230 | 124.80271 | 30059 ft | 438 kts | 232° |
| 2026-04-26 22:39 | 27.64360 | 124.74969 | 30050 ft | 437 kts | 232° |
| 2026-04-26 22:39 | 27.60485 | 124.69679 | 30058 ft | 437 kts | 232° |
| 2026-04-26 22:40 | 27.56622 | 124.64413 | 30051 ft | 436 kts | 232° |
| 2026-04-26 22:40 | 27.52758 | 124.59137 | 30056 ft | 435 kts | 232° |
| 2026-04-26 22:41 | 27.48908 | 124.53881 | 30054 ft | 434 kts | 232° |
| 2026-04-26 22:41 | 27.45081 | 124.48661 | 30056 ft | 434 kts | 232° |
| 2026-04-26 22:42 | 27.41238 | 124.43425 | 30053 ft | 433 kts | 232° |
| 2026-04-26 22:42 | 27.37390 | 124.38189 | 30053 ft | 433 kts | 232° |
| 2026-04-26 22:43 | 27.33543 | 124.32960 | 30055 ft | 433 kts | 232° |
| 2026-04-26 22:43 | 27.29696 | 124.27738 | 30053 ft | 433 kts | 232° |
| 2026-04-26 22:44 | 27.25846 | 124.22519 | 30045 ft | 433 kts | 232° |
| 2026-04-26 22:44 | 27.21989 | 124.17296 | 30035 ft | 434 kts | 232° |
| 2026-04-26 22:45 | 27.18155 | 124.12111 | 30050 ft | 434 kts | 232° |
| 2026-04-26 22:45 | 27.14290 | 124.06888 | 30034 ft | 434 kts | 232° |
| 2026-04-26 22:46 | 27.10427 | 124.01677 | 30048 ft | 434 kts | 232° |
| 2026-04-26 22:46 | 27.06530 | 123.96483 | 30034 ft | 434 kts | 231° |
| 2026-04-26 22:47 | 27.02616 | 123.91300 | 30049 ft | 435 kts | 231° |
| 2026-04-26 22:47 | 26.98703 | 123.86110 | 30039 ft | 435 kts | 231° |
| 2026-04-26 22:48 | 26.94812 | 123.80950 | 30037 ft | 436 kts | 231° |
| 2026-04-26 22:48 | 26.90890 | 123.75752 | 30046 ft | 436 kts | 231° |
| 2026-04-26 22:49 | 26.86974 | 123.70569 | 30041 ft | 435 kts | 231° |
| 2026-04-26 22:49 | 26.83055 | 123.65387 | 30046 ft | 435 kts | 231° |
| 2026-04-26 22:50 | 26.79164 | 123.60248 | 30046 ft | 435 kts | 231° |
| 2026-04-26 22:50 | 26.75238 | 123.55070 | 30049 ft | 436 kts | 231° |
| 2026-04-26 22:51 | 26.71311 | 123.49896 | 30042 ft | 436 kts | 231° |
| 2026-04-26 22:51 | 26.67376 | 123.44718 | 30046 ft | 437 kts | 231° |
| 2026-04-26 22:52 | 26.63430 | 123.39546 | 30037 ft | 437 kts | 231° |
| 2026-04-26 22:52 | 26.61451 | 123.36959 | 29637 ft | 438 kts | 231° |
| 2026-04-26 22:52 | 26.59474 | 123.34373 | 29919 ft | 441 kts | 232° |
| 2026-04-26 22:53 | 26.55447 | 123.29094 | 30036 ft | 451 kts | 232° |
| 2026-04-26 22:53 | 26.51361 | 123.23741 | 30036 ft | 459 kts | 232° |
| 2026-04-26 22:54 | 26.47197 | 123.18297 | 30035 ft | 461 kts | 232° |
| 2026-04-26 22:54 | 26.43025 | 123.12849 | 30035 ft | 462 kts | 232° |
| 2026-04-26 22:55 | 26.38848 | 123.07402 | 30039 ft | 462 kts | 232° |
| 2026-04-26 22:55 | 26.34668 | 123.01955 | 30036 ft | 462 kts | 232° |
| 2026-04-26 22:56 | 26.30473 | 122.96509 | 30032 ft | 463 kts | 232° |
| 2026-04-26 22:56 | 26.26273 | 122.91063 | 30038 ft | 463 kts | 232° |
| 2026-04-26 22:57 | 26.22090 | 122.85639 | 30030 ft | 464 kts | 232° |
| 2026-04-26 22:57 | 26.17885 | 122.80188 | 30031 ft | 464 kts | 232° |
| 2026-04-26 22:58 | 26.13671 | 122.74733 | 30036 ft | 465 kts | 232° |
| 2026-04-26 22:58 | 26.09455 | 122.69280 | 30038 ft | 465 kts | 232° |
| 2026-04-26 22:59 | 26.05232 | 122.63826 | 30038 ft | 465 kts | 232° |
| 2026-04-26 22:59 | 26.01003 | 122.58372 | 30033 ft | 466 kts | 232° |
| 2026-04-26 23:00 | 25.96789 | 122.52943 | 30030 ft | 466 kts | 232° |
| 2026-04-26 23:00 | 25.92546 | 122.47492 | 30027 ft | 467 kts | 232° |
| 2026-04-26 23:01 | 25.88293 | 122.42039 | 30026 ft | 467 kts | 232° |
| 2026-04-26 23:01 | 25.84040 | 122.36581 | 30029 ft | 468 kts | 231° |
| 2026-04-26 23:02 | 25.79778 | 122.31113 | 30019 ft | 468 kts | 232° |
| 2026-04-26 23:02 | 25.75515 | 122.25650 | 30022 ft | 468 kts | 231° |
| 2026-04-26 23:03 | 25.71243 | 122.20183 | 30022 ft | 469 kts | 231° |
| 2026-04-26 23:03 | 25.66967 | 122.14717 | 30016 ft | 469 kts | 231° |
| 2026-04-26 23:04 | 25.62711 | 122.09283 | 30018 ft | 469 kts | 231° |
| 2026-04-26 23:04 | 25.58431 | 122.03822 | 30024 ft | 470 kts | 231° |
| 2026-04-26 23:05 | 25.54142 | 121.98361 | 30020 ft | 470 kts | 231° |
| 2026-04-26 23:05 | 25.49848 | 121.92905 | 30012 ft | 470 kts | 231° |
| 2026-04-26 23:06 | 25.45542 | 121.87440 | 30010 ft | 471 kts | 231° |
| 2026-04-26 23:06 | 25.41229 | 121.81970 | 30009 ft | 471 kts | 231° |
| 2026-04-26 23:07 | 25.36935 | 121.76530 | 30007 ft | 472 kts | 231° |
| 2026-04-26 23:07 | 25.32603 | 121.71049 | 30011 ft | 473 kts | 231° |
| 2026-04-26 23:08 | 25.28273 | 121.65577 | 30016 ft | 473 kts | 231° |
| 2026-04-26 23:08 | 25.23953 | 121.60124 | 30020 ft | 474 kts | 231° |
| 2026-04-26 23:09 | 25.19608 | 121.54645 | 30019 ft | 475 kts | 231° |
| 2026-04-26 23:09 | 25.15277 | 121.49127 | 30031 ft | 475 kts | 232° |
| 2026-04-26 23:10 | 25.10991 | 121.43576 | 30016 ft | 475 kts | 232° |
| 2026-04-26 23:10 | 25.06709 | 121.38015 | 30035 ft | 475 kts | 232° |
| 2026-04-26 23:11 | 25.02428 | 121.32466 | 30025 ft | 476 kts | 232° |
| 2026-04-26 23:11 | 24.98126 | 121.26900 | 30028 ft | 476 kts | 232° |
| 2026-04-26 23:12 | 24.93849 | 121.21376 | 30032 ft | 477 kts | 232° |
| 2026-04-26 23:12 | 24.89535 | 121.15809 | 30028 ft | 477 kts | 232° |
| 2026-04-26 23:13 | 24.85219 | 121.10246 | 30022 ft | 477 kts | 232° |
| 2026-04-26 23:13 | 24.80898 | 121.04678 | 30016 ft | 478 kts | 232° |
| 2026-04-26 23:14 | 24.76585 | 120.99108 | 30022 ft | 478 kts | 232° |
| 2026-04-26 23:14 | 24.72994 | 120.94468 | 30027 ft | 479 kts | 232° |
| 2026-04-26 23:15 | 24.68676 | 120.88891 | 30021 ft | 479 kts | 232° |
| 2026-04-26 23:15 | 24.63645 | 120.82401 | 30029 ft | 480 kts | 232° |
| 2026-04-26 23:16 | 24.60012 | 120.77725 | 30021 ft | 480 kts | 231° |
| 2026-04-26 23:16 | 24.55496 | 120.72307 | 30029 ft | 482 kts | 229° |
| 2026-04-26 23:17 | 24.50877 | 120.67034 | 30040 ft | 482 kts | 229° |
| 2026-04-26 23:17 | 24.46223 | 120.61732 | 30052 ft | 482 kts | 229° |
| 2026-04-26 23:18 | 24.41578 | 120.56416 | 30048 ft | 483 kts | 229° |
| 2026-04-26 23:18 | 24.36929 | 120.51090 | 30050 ft | 483 kts | 229° |
| 2026-04-26 23:19 | 24.32278 | 120.45766 | 30049 ft | 483 kts | 229° |
| 2026-04-26 23:19 | 24.27620 | 120.40441 | 30049 ft | 484 kts | 229° |
| 2026-04-26 23:20 | 24.22955 | 120.35120 | 30038 ft | 484 kts | 229° |
| 2026-04-26 23:20 | 24.18277 | 120.29817 | 30032 ft | 484 kts | 228° |
| 2026-04-26 23:21 | 24.13579 | 120.24502 | 30017 ft | 485 kts | 228° |
| 2026-04-26 23:21 | 24.08917 | 120.19228 | 30016 ft | 485 kts | 228° |
| 2026-04-26 23:22 | 24.04220 | 120.13919 | 30015 ft | 486 kts | 228° |
| 2026-04-26 23:22 | 23.99517 | 120.08606 | 30016 ft | 486 kts | 228° |
| 2026-04-26 23:23 | 23.94819 | 120.03289 | 30019 ft | 486 kts | 228° |
| 2026-04-26 23:23 | 23.90125 | 119.97973 | 30011 ft | 486 kts | 228° |
| 2026-04-26 23:24 | 23.85414 | 119.92641 | 30016 ft | 487 kts | 228° |
| 2026-04-26 23:24 | 23.80710 | 119.87325 | 30017 ft | 487 kts | 228° |
| 2026-04-26 23:25 | 23.75998 | 119.82005 | 30015 ft | 487 kts | 228° |
| 2026-04-26 23:25 | 23.71312 | 119.76721 | 30021 ft | 487 kts | 228° |
| 2026-04-26 23:26 | 23.66594 | 119.71407 | 30025 ft | 487 kts | 228° |
| 2026-04-26 23:26 | 23.61869 | 119.66091 | 30025 ft | 487 kts | 228° |
| 2026-04-26 23:27 | 23.57338 | 119.60618 | 30029 ft | 485 kts | 235° |
| 2026-04-26 23:27 | 23.53623 | 119.54480 | 30024 ft | 484 kts | 240° |
| 2026-04-26 23:28 | 23.50156 | 119.48228 | 30022 ft | 484 kts | 240° |
| 2026-04-26 23:28 | 23.46624 | 119.41974 | 30020 ft | 485 kts | 239° |
| 2026-04-26 23:29 | 23.43046 | 119.35754 | 30020 ft | 485 kts | 239° |
| 2026-04-26 23:29 | 23.39444 | 119.29532 | 30012 ft | 485 kts | 239° |
| 2026-04-26 23:30 | 23.35844 | 119.23317 | 30020 ft | 485 kts | 239° |
| 2026-04-26 23:30 | 23.32244 | 119.17108 | 30020 ft | 485 kts | 239° |
| 2026-04-26 23:31 | 23.28642 | 119.10900 | 30015 ft | 485 kts | 239° |
| 2026-04-26 23:31 | 23.25034 | 119.04691 | 30020 ft | 485 kts | 239° |
| 2026-04-26 23:32 | 23.21429 | 118.98493 | 30017 ft | 485 kts | 239° |
| 2026-04-26 23:32 | 23.17814 | 118.92286 | 30013 ft | 485 kts | 239° |
| 2026-04-26 23:33 | 23.14224 | 118.86131 | 30021 ft | 485 kts | 239° |
| 2026-04-26 23:33 | 23.10592 | 118.79935 | 30029 ft | 486 kts | 239° |
| 2026-04-26 23:34 | 23.06962 | 118.73747 | 30007 ft | 486 kts | 239° |
| 2026-04-26 23:34 | 23.03336 | 118.67557 | 30023 ft | 486 kts | 239° |
| 2026-04-26 23:35 | 22.99703 | 118.61357 | 30004 ft | 486 kts | 239° |
| 2026-04-26 23:35 | 22.96068 | 118.55162 | 30020 ft | 486 kts | 239° |
| 2026-04-26 23:36 | 22.92425 | 118.49018 | 30006 ft | 486 kts | 239° |
| 2026-04-26 23:36 | 22.88757 | 118.42860 | 30019 ft | 486 kts | 239° |
| 2026-04-26 23:37 | 22.85090 | 118.36707 | 30012 ft | 486 kts | 238° |
| 2026-04-26 23:37 | 22.81408 | 118.30531 | 30011 ft | 486 kts | 238° |
| 2026-04-26 23:38 | 22.77758 | 118.24413 | 30011 ft | 486 kts | 238° |
| 2026-04-26 23:38 | 22.74079 | 118.18256 | 30011 ft | 486 kts | 238° |
| 2026-04-26 23:39 | 22.70404 | 118.12112 | 30010 ft | 486 kts | 238° |
| 2026-04-26 23:39 | 22.66734 | 118.05984 | 30008 ft | 485 kts | 238° |
| 2026-04-26 23:40 | 22.63057 | 117.99853 | 30010 ft | 485 kts | 238° |
| 2026-04-26 23:40 | 22.59380 | 117.93711 | 30008 ft | 485 kts | 238° |
| 2026-04-26 23:41 | 22.55734 | 117.87561 | 30007 ft | 485 kts | 238° |
| 2026-04-26 23:41 | 22.52106 | 117.81421 | 30009 ft | 484 kts | 238° |
| 2026-04-26 23:42 | 22.48479 | 117.75286 | 30012 ft | 484 kts | 238° |
| 2026-04-26 23:42 | 22.43039 | 117.66102 | 30011 ft | 483 kts | 238° |
| 2026-04-26 23:43 | 22.39404 | 117.59976 | 30010 ft | 483 kts | 238° |
| 2026-04-26 23:43 | 22.35943 | 117.53778 | 30008 ft | 482 kts | 244° |
| 2026-04-26 23:44 | 22.33619 | 117.47020 | 30012 ft | 481 kts | 257° |
| 2026-04-26 23:44 | 22.32874 | 117.39896 | 30013 ft | 481 kts | 267° |
| 2026-04-26 23:45 | 22.32838 | 117.32668 | 30012 ft | 481 kts | 269° |
| 2026-04-26 23:45 | 22.32818 | 117.25421 | 30013 ft | 481 kts | 268° |
| 2026-04-26 23:46 | 22.32718 | 117.18236 | 30012 ft | 481 kts | 268° |
| 2026-04-26 23:46 | 22.32582 | 117.11025 | 30017 ft | 480 kts | 268° |
| 2026-04-26 23:47 | 22.32439 | 117.03809 | 30016 ft | 480 kts | 268° |
| 2026-04-26 23:47 | 22.32296 | 116.96608 | 30016 ft | 480 kts | 268° |
| 2026-04-26 23:48 | 22.32151 | 116.89402 | 30017 ft | 479 kts | 267° |
| 2026-04-26 23:48 | 22.32003 | 116.82210 | 30014 ft | 479 kts | 267° |
| 2026-04-26 23:49 | 22.31852 | 116.75011 | 30017 ft | 479 kts | 267° |
| 2026-04-26 23:49 | 22.31698 | 116.67869 | 30013 ft | 479 kts | 267° |
| 2026-04-26 23:50 | 22.31541 | 116.60675 | 30014 ft | 479 kts | 267° |
| 2026-04-26 23:50 | 22.31380 | 116.53473 | 30014 ft | 479 kts | 267° |
| 2026-04-26 23:51 | 22.31201 | 116.46266 | 30017 ft | 480 kts | 267° |
| 2026-04-26 23:51 | 22.31022 | 116.39073 | 30015 ft | 480 kts | 267° |
| 2026-04-26 23:52 | 22.30848 | 116.31869 | 30015 ft | 480 kts | 267° |
| 2026-04-26 23:52 | 22.30675 | 116.24701 | 30013 ft | 480 kts | 267° |
| 2026-04-26 23:53 | 22.30499 | 116.17493 | 30008 ft | 480 kts | 267° |
| 2026-04-26 23:53 | 22.30319 | 116.10291 | 30006 ft | 480 kts | 267° |
| 2026-04-26 23:54 | 22.30135 | 116.03082 | 30011 ft | 480 kts | 267° |
| 2026-04-26 23:54 | 22.29949 | 115.95887 | 30008 ft | 479 kts | 267° |
| 2026-04-26 23:55 | 22.29759 | 115.88703 | 30007 ft | 479 kts | 267° |
| 2026-04-26 23:55 | 22.29569 | 115.81506 | 30010 ft | 479 kts | 267° |
| 2026-04-26 23:56 | 22.29389 | 115.74326 | 30010 ft | 478 kts | 267° |
| 2026-04-26 23:56 | 22.29213 | 115.67155 | 30011 ft | 478 kts | 267° |
| 2026-04-26 23:57 | 22.29033 | 115.59988 | 30008 ft | 478 kts | 267° |
| 2026-04-26 23:57 | 22.28843 | 115.52811 | 30009 ft | 477 kts | 267° |
| 2026-04-26 23:58 | 22.28647 | 115.45693 | 30009 ft | 477 kts | 267° |
| 2026-04-26 23:58 | 22.28441 | 115.38542 | 30010 ft | 477 kts | 267° |
| 2026-04-26 23:59 | 22.28228 | 115.31386 | 30010 ft | 477 kts | 267° |
| 2026-04-26 23:59 | 22.28011 | 115.24221 | 30010 ft | 478 kts | 267° |
| 2026-04-27 00:00 | 22.27830 | 115.18254 | 30011 ft | 479 kts | 267° |
| 2026-04-27 00:00 | 22.27614 | 115.11060 | 30009 ft | 480 kts | 267° |
| 2026-04-27 00:01 | 22.27400 | 115.03859 | 30008 ft | 481 kts | 267° |
| 2026-04-27 00:01 | 22.27189 | 114.96630 | 30007 ft | 481 kts | 267° |
| 2026-04-27 00:02 | 22.26982 | 114.89409 | 30009 ft | 481 kts | 267° |
| 2026-04-27 00:02 | 22.26780 | 114.82188 | 30004 ft | 481 kts | 267° |
| 2026-04-27 00:03 | 22.26583 | 114.74971 | 30003 ft | 481 kts | 267° |
| 2026-04-27 00:03 | 22.26396 | 114.67790 | 30002 ft | 481 kts | 267° |
| 2026-04-27 00:04 | 22.26216 | 114.60563 | 30002 ft | 481 kts | 267° |
| 2026-04-27 00:04 | 22.26037 | 114.53350 | 29999 ft | 480 kts | 267° |
| 2026-04-27 00:05 | 22.25859 | 114.46150 | 30003 ft | 480 kts | 267° |
| 2026-04-27 00:05 | 22.25681 | 114.38955 | 30000 ft | 479 kts | 267° |
| 2026-04-27 00:06 | 22.25503 | 114.31748 | 29998 ft | 478 kts | 267° |
| 2026-04-27 00:06 | 22.25330 | 114.24615 | 29987 ft | 478 kts | 267° |
| 2026-04-27 00:07 | 22.25153 | 114.17387 | 29982 ft | 478 kts | 267° |
| 2026-04-27 00:07 | 22.24974 | 114.10245 | 29994 ft | 478 kts | 267° |
| 2026-04-27 00:08 | 22.24789 | 114.03063 | 29994 ft | 479 kts | 267° |
| 2026-04-27 00:08 | 22.24602 | 113.95880 | 29985 ft | 478 kts | 267° |
| 2026-04-27 00:09 | 22.24411 | 113.88701 | 29988 ft | 478 kts | 267° |
| 2026-04-27 00:09 | 22.24219 | 113.81513 | 29988 ft | 478 kts | 267° |
| 2026-04-27 00:10 | 22.24021 | 113.74329 | 29986 ft | 478 kts | 267° |
| 2026-04-27 00:10 | 22.23820 | 113.67154 | 29988 ft | 478 kts | 267° |
| 2026-04-27 00:11 | 22.23616 | 113.59978 | 29999 ft | 478 kts | 267° |
| 2026-04-27 00:11 | 22.23412 | 113.52848 | 29988 ft | 477 kts | 267° |
| 2026-04-27 00:12 | 22.23201 | 113.45679 | 29986 ft | 477 kts | 268° |
| 2026-04-27 00:12 | 22.22985 | 113.38534 | 29986 ft | 476 kts | 267° |
| 2026-04-27 00:13 | 22.22766 | 113.31399 | 29988 ft | 475 kts | 268° |
| 2026-04-27 00:13 | 22.22544 | 113.24288 | 29984 ft | 474 kts | 267° |
| 2026-04-27 00:14 | 22.22321 | 113.17172 | 29989 ft | 473 kts | 268° |
| 2026-04-27 00:14 | 22.22095 | 113.10089 | 29987 ft | 472 kts | 268° |
| 2026-04-27 00:15 | 22.21866 | 113.03062 | 29982 ft | 470 kts | 268° |
| 2026-04-27 00:15 | 22.21632 | 112.96011 | 29984 ft | 469 kts | 268° |
| 2026-04-27 00:16 | 22.21392 | 112.88980 | 29990 ft | 468 kts | 268° |
| 2026-04-27 00:16 | 22.21148 | 112.81967 | 29982 ft | 467 kts | 268° |
| 2026-04-27 00:17 | 22.20897 | 112.74953 | 29981 ft | 466 kts | 268° |
| 2026-04-27 00:17 | 22.20640 | 112.67965 | 29983 ft | 465 kts | 268° |
| 2026-04-27 00:18 | 22.20374 | 112.61005 | 29993 ft | 463 kts | 267° |
| 2026-04-27 00:18 | 22.20099 | 112.54061 | 29989 ft | 463 kts | 268° |
| 2026-04-27 00:19 | 22.20619 | 112.47171 | 29984 ft | 463 kts | 283° |
| 2026-04-27 00:19 | 22.23096 | 112.40805 | 30000 ft | 467 kts | 300° |
| 2026-04-27 00:20 | 22.27388 | 112.35510 | 29998 ft | 475 kts | 317° |
| 2026-04-27 00:20 | 22.33122 | 112.31858 | 29995 ft | 485 kts | 334° |
| 2026-04-27 00:21 | 22.39768 | 112.30258 | 29998 ft | 498 kts | 352° |
| 2026-04-27 00:21 | 22.46732 | 112.30932 | 29993 ft | 510 kts | 9° |
| 2026-04-27 00:22 | 22.53347 | 112.33894 | 29999 ft | 521 kts | 28° |
| 2026-04-27 00:22 | 22.58967 | 112.38925 | 29992 ft | 530 kts | 46° |
| 2026-04-27 00:23 | 22.63027 | 112.45568 | 29990 ft | 535 kts | 64° |
| 2026-04-27 00:23 | 22.65157 | 112.53285 | 29994 ft | 537 kts | 82° |
| 2026-04-27 00:24 | 22.65110 | 112.61322 | 29985 ft | 533 kts | 101° |
| 2026-04-27 00:24 | 22.62863 | 112.68880 | 29985 ft | 525 kts | 119° |
| 2026-04-27 00:25 | 22.59213 | 112.75644 | 29987 ft | 521 kts | 125° |
| 2026-04-27 00:25 | 22.55264 | 112.82201 | 29989 ft | 519 kts | 126° |
| 2026-04-27 00:26 | 22.53283 | 112.85441 | 29489 ft | 514 kts | 126° |
| 2026-04-27 00:26 | 22.51327 | 112.88643 | 28848 ft | 507 kts | 126° |
| 2026-04-27 00:26 | 22.49512 | 112.91923 | 28090 ft | 509 kts | 120° |
| 2026-04-27 00:26 | 22.48018 | 112.95383 | 27363 ft | 505 kts | 114° |
| 2026-04-27 00:27 | 22.46845 | 112.98942 | 26655 ft | 501 kts | 109° |
| 2026-04-27 00:27 | 22.45887 | 113.02545 | 25961 ft | 496 kts | 106° |
| 2026-04-27 00:27 | 22.45045 | 113.06141 | 25266 ft | 491 kts | 105° |
| 2026-04-27 00:27 | 22.44247 | 113.09707 | 24583 ft | 486 kts | 104° |
| 2026-04-27 00:28 | 22.43459 | 113.13233 | 23903 ft | 481 kts | 105° |
| 2026-04-27 00:28 | 22.42664 | 113.16730 | 23168 ft | 476 kts | 105° |
| 2026-04-27 00:28 | 22.41865 | 113.20182 | 22425 ft | 470 kts | 105° |
| 2026-04-27 00:28 | 22.41077 | 113.23544 | 21745 ft | 463 kts | 105° |
| 2026-04-27 00:29 | 22.40286 | 113.26891 | 21094 ft | 457 kts | 106° |
| 2026-04-27 00:29 | 22.39494 | 113.30204 | 20442 ft | 451 kts | 106° |
| 2026-04-27 00:29 | 22.38710 | 113.33469 | 19814 ft | 446 kts | 106° |
| 2026-04-27 00:29 | 22.37938 | 113.36691 | 19190 ft | 440 kts | 106° |
| 2026-04-27 00:30 | 22.37177 | 113.39876 | 18570 ft | 435 kts | 106° |
| 2026-04-27 00:30 | 22.36429 | 113.43013 | 17912 ft | 429 kts | 106° |
| 2026-04-27 00:30 | 22.35691 | 113.46112 | 17264 ft | 423 kts | 106° |
| 2026-04-27 00:30 | 22.34963 | 113.49169 | 16645 ft | 417 kts | 106° |
| 2026-04-27 00:31 | 22.34246 | 113.52174 | 16048 ft | 411 kts | 106° |
| 2026-04-27 00:31 | 22.33536 | 113.55153 | 15462 ft | 406 kts | 106° |
| 2026-04-27 00:31 | 22.32842 | 113.58055 | 14897 ft | 401 kts | 106° |
| 2026-04-27 00:31 | 22.32150 | 113.60952 | 14325 ft | 396 kts | 106° |
| 2026-04-27 00:32 | 22.31464 | 113.63821 | 13755 ft | 392 kts | 106° |
| 2026-04-27 00:32 | 22.30787 | 113.66647 | 13144 ft | 387 kts | 106° |
| 2026-04-27 00:32 | 22.30117 | 113.69443 | 12577 ft | 383 kts | 106° |
| 2026-04-27 00:32 | 22.29453 | 113.72209 | 12012 ft | 379 kts | 106° |
| 2026-04-27 00:33 | 22.28795 | 113.74950 | 11495 ft | 375 kts | 106° |
| 2026-04-27 00:33 | 22.28145 | 113.77652 | 11131 ft | 371 kts | 106° |
| 2026-04-27 00:33 | 22.27501 | 113.80333 | 10968 ft | 360 kts | 106° |
| 2026-04-27 00:33 | 22.26888 | 113.82887 | 10848 ft | 343 kts | 106° |
| 2026-04-27 00:34 | 22.26302 | 113.85326 | 10724 ft | 328 kts | 106° |
| 2026-04-27 00:34 | 22.25741 | 113.87657 | 10600 ft | 314 kts | 106° |
| 2026-04-27 00:34 | 22.25202 | 113.89892 | 10473 ft | 301 kts | 106° |
| 2026-04-27 00:34 | 22.24682 | 113.92047 | 10186 ft | 295 kts | 106° |
| 2026-04-27 00:35 | 22.24163 | 113.94190 | 9679 ft | 297 kts | 106° |
| 2026-04-27 00:35 | 22.23639 | 113.96355 | 9212 ft | 297 kts | 106° |
| 2026-04-27 00:35 | 22.23120 | 113.98499 | 8831 ft | 294 kts | 106° |
| 2026-04-27 00:35 | 22.22606 | 114.00623 | 8460 ft | 290 kts | 106° |
| 2026-04-27 00:36 | 22.22007 | 114.02673 | 8110 ft | 281 kts | 120° |
| 2026-04-27 00:36 | 22.20765 | 114.04240 | 8033 ft | 277 kts | 138° |
| 2026-04-27 00:36 | 22.19237 | 114.05494 | 7957 ft | 275 kts | 156° |
| 2026-04-27 00:36 | 22.17421 | 114.05899 | 7903 ft | 272 kts | 185° |
| 2026-04-27 00:37 | 22.15633 | 114.05305 | 7846 ft | 272 kts | 212° |
| 2026-04-27 00:37 | 22.14304 | 114.03871 | 7783 ft | 273 kts | 240° |
| 2026-04-27 00:37 | 22.13776 | 114.01915 | 7731 ft | 275 kts | 268° |
| 2026-04-27 00:37 | 22.14155 | 113.99885 | 7500 ft | 281 kts | 295° |
| 2026-04-27 00:38 | 22.15212 | 113.98154 | 7158 ft | 271 kts | 307° |
| 2026-04-27 00:38 | 22.16381 | 113.96671 | 6801 ft | 250 kts | 310° |
| 2026-04-27 00:38 | 22.17493 | 113.95315 | 6473 ft | 231 kts | 310° |
| 2026-04-27 00:38 | 22.18513 | 113.94064 | 6303 ft | 213 kts | 309° |
| 2026-04-27 00:39 | 22.19466 | 113.92884 | 6212 ft | 210 kts | 309° |
| 2026-04-27 00:39 | 22.20421 | 113.91692 | 6130 ft | 216 kts | 309° |
| 2026-04-27 00:39 | 22.21417 | 113.90503 | 6004 ft | 206 kts | 316° |
| 2026-04-27 00:39 | 22.22599 | 113.89672 | 5938 ft | 204 kts | 339° |
| 2026-04-27 00:40 | 22.23978 | 113.89464 | 5865 ft | 203 kts | 6° |
| 2026-04-27 00:40 | 22.25372 | 113.89742 | 5783 ft | 202 kts | 13° |
| 2026-04-27 00:40 | 22.26693 | 113.90077 | 5415 ft | 188 kts | 14° |
| 2026-04-27 00:40 | 22.27956 | 113.90409 | 5129 ft | 185 kts | 14° |
| 2026-04-27 00:41 | 22.29107 | 113.90961 | 4783 ft | 180 kts | 39° |
| 2026-04-27 00:41 | 22.30059 | 113.91840 | 4582 ft | 181 kts | 43° |
| 2026-04-27 00:41 | 22.30952 | 113.92796 | 4492 ft | 179 kts | 55° |
| 2026-04-27 00:41 | 22.31458 | 113.93999 | 4458 ft | 175 kts | 81° |
| 2026-04-27 00:42 | 22.31620 | 113.95308 | 4415 ft | 176 kts | 85° |
| 2026-04-27 00:42 | 22.31747 | 113.96626 | 4147 ft | 176 kts | 86° |
| 2026-04-27 00:42 | 22.31865 | 113.97938 | 3873 ft | 175 kts | 86° |
| 2026-04-27 00:42 | 22.31976 | 113.99244 | 3589 ft | 174 kts | 86° |
| 2026-04-27 00:43 | 22.32081 | 114.00542 | 3324 ft | 174 kts | 87° |
| 2026-04-27 00:43 | 22.32182 | 114.01845 | 3041 ft | 174 kts | 87° |
| 2026-04-27 00:43 | 22.32280 | 114.03131 | 2762 ft | 172 kts | 87° |
| 2026-04-27 00:43 | 22.32373 | 114.04409 | 2504 ft | 170 kts | 87° |
| 2026-04-27 00:44 | 22.32434 | 114.05249 | 2328 ft | 168 kts | 88° |
| 2026-04-27 00:44 | 22.32522 | 114.06504 | 2043 ft | 166 kts | 88° |
| 2026-04-27 00:44 | 22.32608 | 114.07743 | 1910 ft | 164 kts | 87° |
| 2026-04-27 00:44 | 22.32693 | 114.08973 | 1886 ft | 164 kts | 87° |
| 2026-04-27 00:45 | 22.32774 | 114.10204 | 1899 ft | 164 kts | 87° |
| 2026-04-27 00:45 | 22.32881 | 114.11831 | 1876 ft | 164 kts | 86° |
| 2026-04-27 00:45 | 22.32936 | 114.12663 | 1654 ft | 163 kts | 87° |
| 2026-04-27 00:45 | 22.33016 | 114.13882 | 1326 ft | 162 kts | 87° |
| 2026-04-27 00:46 | 22.33094 | 114.15074 | 1104 ft | 161 kts | 86° |
| 2026-04-27 00:46 | 22.33095 | 114.16286 | 987 ft | 162 kts | 95° |
| 2026-04-27 00:46 | 22.32967 | 114.17494 | 682 ft | 162 kts | 94° |
| 2026-04-27 00:46 | 22.32794 | 114.18689 | 485 ft | 161 kts | 111° |
| 2026-04-27 00:47 | 22.32187 | 114.19618 | 39 ft | 135 kts | 128° |
| 2026-04-27 00:47 | 22.31781 | 114.20097 | 38 ft | 41 kts | 134° |
| 2026-04-27 00:47 | 22.31718 | 114.20165 | 38 ft | 7 kts | 134° |
| 2026-04-27 00:47 | 22.31688 | 114.20198 | 38 ft | 9 kts | 135° |
| 2026-04-27 00:48 | 22.31629 | 114.20262 | 36 ft | 14 kts | 133° |
| 2026-04-27 00:48 | 22.31584 | 114.20329 | 37 ft | 8 kts | 96° |
| 2026-04-27 00:48 | 22.31611 | 114.20378 | 38 ft | 7 kts | 31° |
| 2026-04-27 00:48 | 22.31661 | 114.20373 | 38 ft | 10 kts | 333° |
| 2026-04-27 00:49 | 22.31690 | 114.20347 | 38 ft | 0 kts | 315° |
| 2026-04-27 00:50 | 22.31714 | 114.20322 | 37 ft | 16 kts | 314° |
| 2026-04-27 00:50 | 22.31976 | 114.20024 | 38 ft | 29 kts | 314° |
| 2026-04-27 00:50 | 22.32139 | 114.19924 | 38 ft | 26 kts | 347° |
| 2026-04-27 00:51 | 22.32307 | 114.19934 | 38 ft | 23 kts | 18° |
| 2026-04-27 00:51 | 22.32442 | 114.19983 | 42 ft | 18 kts | 18° |
| 2026-04-27 00:51 | 22.32561 | 114.20022 | 42 ft | 18 kts | 19° |
| 2026-04-27 00:51 | 22.32670 | 114.20068 | 42 ft | 16 kts | 25° |
| 2026-04-27 00:52 | 22.32770 | 114.20144 | 42 ft | 22 kts | 40° |
| 2026-04-27 00:52 | 22.32889 | 114.20239 | 40 ft | 20 kts | 44° |
| 2026-04-27 00:52 | 22.32995 | 114.20309 | 42 ft | 16 kts | 11° |
| 2026-04-27 00:52 | 22.33084 | 114.20315 | 42 ft | 9 kts | 14° |
| 2026-04-27 00:53 | 22.33116 | 114.20352 | 42 ft | 9 kts | 74° |
| 2026-04-27 00:53 | 22.33125 | 114.20417 | 42 ft | 3 kts | 83° |
| 2026-04-27 00:53 | 22.33126 | 114.20419 | 42 ft | 0 kts | 83° |